Hermes Quijada International Airport
SAWE : rendu visible

Aérodrome :











RETROUVEZ-NOUS SUR...

 
LOGIN :

S'inscrire | Disclaimer

   EN    FR    IT 

 









Légende :    VFR   VFR Marginal   IFR   IFR Intensif   IFR Très Intensif
Visi : 
Plafond : 
>= 8 km
>= 3000ft
5 à 8 km
1000 à 3000 ft
1500m à 5 km
500 à 1000 ft
800 à 1500m
200 à 500 ft
< 800m
< 200 ft
Symboles :   Orages  Brouillard  Fortes neiges  Fortes précipitations  Vent > 20 kt






- Altitude de l'aérodrome : 65 ft
- Code IATA : RGA


SAWE - Hermes Quijada International

DERNIER METAR :
  • 012000Z 29003KT 9999 BKN020 06/05 Q0991

METARs EXPIRÉS :
  • 011900Z 27003KT CAVOK 07/05 Q0991
  • 011800Z 27005KT CAVOK 07/05 Q0992

TAF TAF SAWE
Valide du 01 à 18h jusqu'au 02 à 18h UTC


011700Z 0118/0218 29015G25KT 9999 SCT040 TX07/0118Z TN00/0203Z
BECMG 0122/0202 27020G30KT CAVOK
TEMPO 0206/0210 25025G40KT
FIR SAVF / Amérique du Sud



MET'MAP, la Météo Aéronautique d'un coup d'oeil ! - Copyright ORBIFLY Décembre 2007 - Disclaimer

ORBIFLY MET'MAP TEAM :

Programmation & Développement : Alexandra Zaïnal
Sur une idée originale de : Baudouin d'Aumeries
Assistance à la programmation : Marc-Olivier Méhu
Soutien technique & logistique : Manuel Goepfert

Contact : metmap@orbifly.com




SOURCES & CREDITS :

   NOAA       Earth
Advisory